Time;durP1;ratioP1;P1;durP2;ratioP2;P2;SDS_P1;SDS_P2;PMS_P1;PMS_P2;Temp;Humidity;BMP_temperature;BMP_pressure;BME280_temperature;BME280_humidity;BME280_pressure;Samples;Min_cycle;Max_cycle;Signal;HPM_P1;HPM_P2
2022/11/20 00:00:06;;;;;;;13.95;9.00;;;;;;;;;;5074220;28;20494;-77
2022/11/20 00:02:32;;;;;;;14.52;8.30;;;;;;;;;;5069760;28;20069;-77
2022/11/20 00:04:58;;;;;;;13.18;9.15;;;;;;;;;;5055581;28;20049;-77
2022/11/20 00:07:24;;;;;;;14.48;8.48;;;;;;;;;;5054755;28;20044;-77
2022/11/20 00:09:50;;;;;;;13.13;8.18;;;;;;;;;;5054573;28;20056;-77
2022/11/20 00:12:16;;;;;;;14.50;8.20;;;;;;;;;;5074921;28;20040;-77
2022/11/20 00:14:42;;;;;;;13.90;8.70;;;;;;;;;;5074622;28;20131;-77
2022/11/20 00:17:08;;;;;;;15.43;9.48;;;;;;;;;;5074910;28;20525;-77
2022/11/20 00:19:34;;;;;;;14.90;9.38;;;;;;;;;;5046721;28;20045;-77
2022/11/20 00:22:01;;;;;;;15.70;9.52;;;;;;;;;;5060965;28;20047;-77
2022/11/20 00:24:27;;;;;;;20.20;11.73;;;;;;;;;;5074474;28;20550;-77
2022/11/20 00:26:53;;;;;;;20.50;12.27;;;;;;;;;;5075587;28;20036;-77
2022/11/20 00:29:19;;;;;;;21.15;12.73;;;;;;;;;;5075448;28;20094;-77
2022/11/20 00:31:45;;;;;;;16.48;10.88;;;;;;;;;;5079039;28;20119;-77
2022/11/20 00:34:11;;;;;;;15.10;9.52;;;;;;;;;;5075634;28;20087;-77
2022/11/20 00:36:37;;;;;;;13.65;8.77;;;;;;;;;;5074615;28;20361;-77
2022/11/20 00:39:03;;;;;;;13.60;8.75;;;;;;;;;;5071574;28;20136;-77
2022/11/20 00:41:29;;;;;;;13.18;8.88;;;;;;;;;;5056152;28;20056;-77
2022/11/20 00:43:56;;;;;;;14.40;8.43;;;;;;;;;;5073537;28;20049;-77
2022/11/20 00:46:23;;;;;;;12.93;8.70;;;;;;;;;;5056877;28;20120;-77
2022/11/20 00:48:49;;;;;;;12.95;9.02;;;;;;;;;;5065310;28;20041;-77
2022/11/20 00:51:16;;;;;;;12.82;8.85;;;;;;;;;;5067666;28;20048;-77
2022/11/20 00:53:42;;;;;;;14.95;9.55;;;;;;;;;;5073681;28;20534;-77
2022/11/20 00:56:10;;;;;;;15.50;9.75;;;;;;;;;;5073752;28;20080;-77
2022/11/20 00:58:37;;;;;;;13.07;8.75;;;;;;;;;;5068803;28;20045;-77
2022/11/20 01:01:05;;;;;;;15.10;9.10;;;;;;;;;;5053867;28;20044;-77
2022/11/20 01:03:32;;;;;;;14.73;9.75;;;;;;;;;;5054215;28;20415;-77
2022/11/20 01:06:05;;;;;;;13.40;8.73;;;;;;;;;;5054114;28;20513;-77
2022/11/20 01:08:32;;;;;;;14.30;8.98;;;;;;;;;;5054519;28;20124;-77
2022/11/20 01:11:02;;;;;;;14.27;8.77;;;;;;;;;;5054443;28;20045;-77
2022/11/20 01:13:37;;;;;;;13.35;8.68;;;;;;;;;;5066024;28;20091;-77
2022/11/20 01:16:06;;;;;;;13.23;8.32;;;;;;;;;;5073738;28;20060;-77
2022/11/20 01:18:32;;;;;;;15.40;9.23;;;;;;;;;;5073705;28;20036;-77
2022/11/20 01:21:06;;;;;;;12.85;9.13;;;;;;;;;;5073735;28;20040;-77
2022/11/20 01:23:33;;;;;;;14.73;8.77;;;;;;;;;;5072464;28;20127;-77
2022/11/20 01:26:03;;;;;;;15.05;9.07;;;;;;;;;;5072670;28;20043;-77
2022/11/20 01:28:29;;;;;;;14.68;8.55;;;;;;;;;;5073776;28;20048;-77
2022/11/20 01:30:55;;;;;;;14.77;9.00;;;;;;;;;;5073430;28;20045;-77
2022/11/20 01:33:21;;;;;;;12.82;8.32;;;;;;;;;;5073402;28;20108;-77
2022/11/20 01:35:47;;;;;;;15.30;8.70;;;;;;;;;;5073434;28;20124;-77
2022/11/20 01:38:15;;;;;;;14.18;8.85;;;;;;;;;;5072967;28;20044;-77
2022/11/20 01:40:41;;;;;;;15.30;9.27;;;;;;;;;;5073644;28;20072;-77
2022/11/20 01:43:20;;;;;;;14.27;9.25;;;;;;;;;;5055890;28;20063;-77
2022/11/20 01:45:47;;;;;;;14.00;8.88;;;;;;;;;;5057722;28;20061;-77
2022/11/20 01:48:13;;;;;;;16.58;9.63;;;;;;;;;;5052317;28;20037;-77
2022/11/20 01:50:40;;;;;;;14.98;8.80;;;;;;;;;;5035908;28;20502;-77
2022/11/20 01:53:08;;;;;;;14.38;9.05;;;;;;;;;;5053701;28;20045;-77
2022/11/20 01:55:40;;;;;;;13.18;8.70;;;;;;;;;;5071393;28;20482;-77
2022/11/20 01:58:06;;;;;;;15.88;8.32;;;;;;;;;;5073489;28;20037;-77
2022/11/20 02:00:32;;;;;;;14.05;9.00;;;;;;;;;;5056051;28;20048;-77
2022/11/20 02:03:01;;;;;;;12.95;9.25;;;;;;;;;;5073205;28;20052;-77
2022/11/20 02:05:36;;;;;;;14.88;9.18;;;;;;;;;;5076804;28;20080;-77
2022/11/20 02:08:03;;;;;;;15.73;9.25;;;;;;;;;;5066149;28;20052;-77
2022/11/20 02:10:30;;;;;;;14.35;8.88;;;;;;;;;;5073141;28;20040;-77
2022/11/20 02:15:41;;;;;;;14.77;9.20;;;;;;;;;;5059152;28;20052;-77
2022/11/20 02:18:07;;;;;;;14.15;9.48;;;;;;;;;;5071719;28;20052;-77
2022/11/20 02:20:34;;;;;;;15.38;9.02;;;;;;;;;;5055391;28;20040;-77
2022/11/20 02:23:26;;;;;;;14.68;9.02;;;;;;;;;;5072496;28;20510;-77
2022/11/20 02:25:53;;;;;;;14.50;9.00;;;;;;;;;;5058245;28;20132;-77
2022/11/20 02:28:19;;;;;;;12.65;8.88;;;;;;;;;;5073583;28;20135;-77
2022/11/20 02:30:45;;;;;;;12.57;8.15;;;;;;;;;;5068282;28;20121;-77
2022/11/20 02:33:11;;;;;;;12.52;8.90;;;;;;;;;;5052976;28;20183;-77
2022/11/20 02:35:40;;;;;;;15.40;9.50;;;;;;;;;;5053226;28;20041;-77
2022/11/20 02:38:07;;;;;;;15.27;9.70;;;;;;;;;;5064226;28;20511;-77
2022/11/20 02:40:33;;;;;;;13.52;9.18;;;;;;;;;;5072046;28;20044;-77
2022/11/20 02:42:59;;;;;;;14.27;9.30;;;;;;;;;;5073146;28;20045;-77
2022/11/20 02:45:25;;;;;;;14.82;9.32;;;;;;;;;;5072774;28;20445;-77
2022/11/20 02:47:51;;;;;;;15.88;9.27;;;;;;;;;;5073133;28;20090;-77
2022/11/20 02:50:17;;;;;;;13.55;9.00;;;;;;;;;;5074282;28;20051;-77
2022/11/20 02:52:43;;;;;;;13.00;8.50;;;;;;;;;;5076599;28;20051;-77
2022/11/20 02:55:10;;;;;;;15.02;9.60;;;;;;;;;;5075604;28;20040;-77
2022/11/20 02:57:36;;;;;;;13.85;8.88;;;;;;;;;;5056406;28;20049;-77
2022/11/20 03:00:03;;;;;;;14.48;8.75;;;;;;;;;;5075661;28;20434;-77
2022/11/20 03:02:32;;;;;;;13.18;8.32;;;;;;;;;;5076904;28;20041;-77
2022/11/20 03:04:59;;;;;;;14.05;8.73;;;;;;;;;;5076338;28;20051;-77
2022/11/20 03:07:25;;;;;;;12.73;8.35;;;;;;;;;;5068131;28;20045;-77
2022/11/20 03:09:51;;;;;;;15.77;9.63;;;;;;;;;;5070406;28;20048;-77
2022/11/20 03:12:17;;;;;;;16.98;9.07;;;;;;;;;;5075199;28;20048;-77
2022/11/20 03:14:43;;;;;;;14.07;8.52;;;;;;;;;;5075899;28;20044;-77
2022/11/20 03:17:09;;;;;;;14.95;9.68;;;;;;;;;;5076518;28;20049;-77
2022/11/20 03:19:35;;;;;;;13.27;9.32;;;;;;;;;;5076017;28;20156;-77
2022/11/20 03:22:01;;;;;;;14.25;8.98;;;;;;;;;;5062265;28;20379;-77
2022/11/20 03:24:27;;;;;;;14.60;9.02;;;;;;;;;;5067073;28;20128;-77
2022/11/20 03:26:53;;;;;;;14.40;8.85;;;;;;;;;;5070406;28;20044;-77
2022/11/20 03:29:19;;;;;;;14.23;8.68;;;;;;;;;;5062675;28;20037;-77
2022/11/20 03:31:45;;;;;;;12.50;8.35;;;;;;;;;;5057489;28;20041;-77
2022/11/20 03:34:12;;;;;;;14.40;9.23;;;;;;;;;;5077757;28;20071;-77
2022/11/20 03:36:39;;;;;;;13.52;9.30;;;;;;;;;;5068724;28;20049;-77
2022/11/20 03:39:05;;;;;;;14.35;8.98;;;;;;;;;;5068688;28;20072;-77
2022/11/20 03:41:32;;;;;;;13.85;9.00;;;;;;;;;;5075702;28;20052;-77
2022/11/20 03:43:59;;;;;;;14.65;8.25;;;;;;;;;;5075269;28;20040;-77
2022/11/20 03:46:25;;;;;;;13.18;8.38;;;;;;;;;;5068253;28;20040;-77
2022/11/20 03:48:52;;;;;;;12.13;8.63;;;;;;;;;;5063464;28;20141;-77
2022/11/20 03:51:21;;;;;;;12.32;8.10;;;;;;;;;;5075026;28;20551;-77
2022/11/20 03:53:48;;;;;;;13.30;8.20;;;;;;;;;;5067335;28;20037;-77
2022/11/20 03:56:15;;;;;;;13.85;8.63;;;;;;;;;;5055602;28;20120;-77
2022/11/20 03:58:41;;;;;;;11.50;7.80;;;;;;;;;;5062044;28;20036;-77
2022/11/20 04:01:08;;;;;;;10.77;7.57;;;;;;;;;;5074582;28;20425;-77
2022/11/20 04:03:35;;;;;;;11.80;7.88;;;;;;;;;;5075081;28;20087;-77
2022/11/20 04:06:06;;;;;;;10.18;7.22;;;;;;;;;;5073732;28;20459;-77
2022/11/20 04:08:32;;;;;;;12.80;7.72;;;;;;;;;;5074620;28;20075;-77
2022/11/20 04:11:08;;;;;;;11.70;7.63;;;;;;;;;;5075238;28;20040;-77
2022/11/20 04:13:34;;;;;;;12.90;8.10;;;;;;;;;;5075170;28;20051;-77
2022/11/20 04:16:00;;;;;;;15.52;7.95;;;;;;;;;;5071076;28;20096;-77
2022/11/20 04:18:26;;;;;;;11.48;8.27;;;;;;;;;;5059021;28;20072;-77
2022/11/20 04:20:52;;;;;;;14.68;8.43;;;;;;;;;;5056528;28;20078;-77
2022/11/20 04:23:18;;;;;;;12.95;8.65;;;;;;;;;;5074871;28;20119;-77
2022/11/20 04:25:44;;;;;;;12.30;7.88;;;;;;;;;;5074891;28;20448;-77
2022/11/20 04:28:10;;;;;;;15.15;8.82;;;;;;;;;;5046945;28;20123;-77
2022/11/20 04:30:39;;;;;;;11.65;7.88;;;;;;;;;;5074675;28;20044;-77
2022/11/20 04:33:05;;;;;;;14.27;8.43;;;;;;;;;;5072917;28;20048;-77
2022/11/20 04:35:34;;;;;;;10.60;7.38;;;;;;;;;;5074691;28;20036;-77
2022/11/20 04:38:00;;;;;;;13.13;8.15;;;;;;;;;;5074174;28;20048;-77
2022/11/20 04:40:26;;;;;;;14.40;8.57;;;;;;;;;;5054669;28;20052;-77
2022/11/20 04:42:52;;;;;;;13.60;8.40;;;;;;;;;;5060124;28;20051;-77
2022/11/20 04:45:18;;;;;;;13.05;7.85;;;;;;;;;;5073890;28;20036;-77
2022/11/20 04:47:44;;;;;;;11.77;7.63;;;;;;;;;;5074010;28;20036;-77
2022/11/20 04:50:10;;;;;;;12.07;8.20;;;;;;;;;;5073934;28;20046;-77
2022/11/20 04:52:36;;;;;;;13.57;8.50;;;;;;;;;;5069509;28;20049;-77
2022/11/20 04:55:02;;;;;;;12.23;8.32;;;;;;;;;;5073591;28;20052;-77
2022/11/20 04:57:28;;;;;;;12.50;8.32;;;;;;;;;;5074528;28;20110;-77
2022/11/20 04:59:54;;;;;;;13.98;8.90;;;;;;;;;;5072801;28;20081;-77
2022/11/20 05:02:21;;;;;;;15.48;9.15;;;;;;;;;;5057007;28;20463;-77
2022/11/20 05:04:47;;;;;;;14.55;8.45;;;;;;;;;;5054406;28;20045;-77
2022/11/20 05:07:13;;;;;;;11.27;7.68;;;;;;;;;;5074037;28;20045;-77
2022/11/20 05:09:39;;;;;;;12.35;8.48;;;;;;;;;;5073737;28;20048;-78
2022/11/20 05:12:05;;;;;;;12.40;8.38;;;;;;;;;;5073381;28;20119;-77
2022/11/20 05:14:31;;;;;;;12.48;8.35;;;;;;;;;;5072866;28;20056;-77
2022/11/20 05:16:57;;;;;;;13.70;8.07;;;;;;;;;;5073629;28;20101;-77
2022/11/20 05:19:23;;;;;;;13.10;8.70;;;;;;;;;;5073426;28;20044;-77
2022/11/20 05:21:49;;;;;;;12.85;7.85;;;;;;;;;;5073511;28;20056;-77
2022/11/20 05:24:15;;;;;;;13.98;9.18;;;;;;;;;;5073391;28;20513;-77
2022/11/20 05:26:41;;;;;;;11.77;8.02;;;;;;;;;;5073516;28;20102;-77
2022/11/20 05:29:07;;;;;;;11.00;7.88;;;;;;;;;;5074079;28;20072;-77
2022/11/20 05:31:33;;;;;;;11.00;7.85;;;;;;;;;;5073636;28;20048;-77
2022/11/20 05:33:59;;;;;;;12.80;7.90;;;;;;;;;;5055646;28;20098;-77
2022/11/20 05:36:25;;;;;;;12.38;8.38;;;;;;;;;;5073562;28;20122;-77
2022/11/20 05:38:51;;;;;;;13.52;8.25;;;;;;;;;;5055709;28;20051;-77
2022/11/20 05:41:18;;;;;;;11.45;7.20;;;;;;;;;;5073454;28;20056;-77
2022/11/20 05:43:45;;;;;;;11.93;7.97;;;;;;;;;;5073389;28;20052;-77
2022/11/20 05:46:12;;;;;;;12.48;8.68;;;;;;;;;;5072830;28;20372;-77
2022/11/20 05:48:39;;;;;;;11.00;7.45;;;;;;;;;;5073294;28;20363;-77
2022/11/20 05:51:06;;;;;;;11.40;7.22;;;;;;;;;;5063231;28;20123;-77
2022/11/20 05:53:33;;;;;;;12.05;7.88;;;;;;;;;;5067507;28;20627;-77
2022/11/20 05:55:59;;;;;;;11.50;8.20;;;;;;;;;;5065159;28;20097;-77
2022/11/20 05:58:25;;;;;;;12.75;7.97;;;;;;;;;;5073243;28;20120;-77
2022/11/20 06:00:51;;;;;;;12.13;7.57;;;;;;;;;;5073492;28;20051;-77
2022/11/20 06:03:17;;;;;;;12.35;7.88;;;;;;;;;;5073224;28;20048;-77
2022/11/20 06:05:43;;;;;;;12.82;8.10;;;;;;;;;;5073529;28;20124;-77
2022/11/20 06:08:09;;;;;;;14.15;8.70;;;;;;;;;;5066563;28;20128;-77
2022/11/20 06:10:35;;;;;;;11.27;7.75;;;;;;;;;;5073160;28;20045;-77
2022/11/20 06:13:01;;;;;;;13.52;8.40;;;;;;;;;;5059304;28;20045;-77
2022/11/20 06:15:27;;;;;;;12.93;7.95;;;;;;;;;;5071514;28;20127;-77
2022/11/20 06:17:54;;;;;;;14.20;8.07;;;;;;;;;;5073160;28;20072;-77
2022/11/20 06:20:22;;;;;;;10.73;7.47;;;;;;;;;;5073236;28;20466;-77
2022/11/20 06:22:48;;;;;;;13.15;8.15;;;;;;;;;;5073081;28;20051;-77
2022/11/20 06:25:14;;;;;;;13.10;7.78;;;;;;;;;;5060978;28;20123;-77
2022/11/20 06:27:40;;;;;;;11.77;8.38;;;;;;;;;;5056928;28;20041;-77
2022/11/20 06:30:10;;;;;;;12.80;7.63;;;;;;;;;;5055873;28;20068;-77
2022/11/20 06:32:36;;;;;;;16.58;8.35;;;;;;;;;;5071571;28;20075;-77
2022/11/20 06:35:02;;;;;;;11.85;7.38;;;;;;;;;;5077125;28;20076;-77
2022/11/20 06:37:28;;;;;;;13.80;8.07;;;;;;;;;;5076652;28;20068;-77
2022/11/20 06:39:54;;;;;;;12.98;8.55;;;;;;;;;;5071409;28;20123;-77
2022/11/20 06:42:20;;;;;;;11.98;7.60;;;;;;;;;;5079254;28;20454;-77
2022/11/20 06:44:46;;;;;;;13.50;8.25;;;;;;;;;;5061077;28;20080;-77
2022/11/20 06:47:12;;;;;;;11.77;8.60;;;;;;;;;;5070742;28;20130;-77
2022/11/20 06:49:38;;;;;;;13.00;7.97;;;;;;;;;;5076343;28;20059;-77
2022/11/20 06:52:04;;;;;;;12.82;7.95;;;;;;;;;;5058125;28;20056;-77
2022/11/20 06:54:30;;;;;;;12.98;8.90;;;;;;;;;;5076911;28;20043;-78
2022/11/20 06:56:56;;;;;;;14.23;9.02;;;;;;;;;;5077832;28;20057;-79
2022/11/20 06:59:22;;;;;;;11.32;7.72;;;;;;;;;;5076685;28;20040;-77
2022/11/20 07:01:50;;;;;;;12.70;7.82;;;;;;;;;;5060418;28;20501;-77
2022/11/20 07:04:16;;;;;;;12.75;8.43;;;;;;;;;;5066032;28;20056;-77
2022/11/20 07:07:03;;;;;;;13.10;8.27;;;;;;;;;;5075849;28;20133;-77
2022/11/20 07:09:29;;;;;;;11.18;8.15;;;;;;;;;;5075792;28;20056;-77
2022/11/20 07:11:55;;;;;;;11.73;8.25;;;;;;;;;;5071283;28;20044;-77
2022/11/20 07:14:21;;;;;;;12.18;7.47;;;;;;;;;;5075800;28;20050;-75
2022/11/20 07:16:49;;;;;;;13.13;8.20;;;;;;;;;;5057636;28;20130;-77
2022/11/20 07:19:15;;;;;;;12.60;8.18;;;;;;;;;;5074293;28;20056;-77
2022/11/20 07:21:41;;;;;;;14.57;8.63;;;;;;;;;;5075672;28;20055;-77
2022/11/20 07:24:07;;;;;;;13.13;9.48;;;;;;;;;;5062103;28;20044;-76
2022/11/20 07:26:33;;;;;;;13.75;8.35;;;;;;;;;;5078077;28;20049;-77
2022/11/20 07:28:59;;;;;;;13.52;8.50;;;;;;;;;;5076079;28;20044;-77
2022/11/20 07:31:25;;;;;;;13.65;9.18;;;;;;;;;;5069219;28;20052;-77
2022/11/20 07:33:57;;;;;;;12.05;7.90;;;;;;;;;;5071461;28;20048;-77
2022/11/20 07:36:24;;;;;;;13.07;8.45;;;;;;;;;;5074963;28;20044;-76
2022/11/20 07:38:50;;;;;;;15.07;8.38;;;;;;;;;;5075658;28;20518;-76
2022/11/20 07:41:16;;;;;;;12.32;8.43;;;;;;;;;;5075637;28;20037;-76
2022/11/20 07:43:42;;;;;;;12.90;8.32;;;;;;;;;;5076132;28;20043;-76
2022/11/20 07:46:08;;;;;;;14.00;8.90;;;;;;;;;;5057473;28;20045;-76
2022/11/20 07:48:34;;;;;;;13.35;8.10;;;;;;;;;;5062940;28;20127;-76
2022/11/20 07:51:00;;;;;;;12.55;8.68;;;;;;;;;;5075557;28;20099;-76
2022/11/20 07:53:26;;;;;;;13.70;8.85;;;;;;;;;;5075520;28;20119;-76
2022/11/20 07:55:52;;;;;;;12.77;8.20;;;;;;;;;;5070499;28;20437;-76
2022/11/20 07:58:19;;;;;;;12.20;8.15;;;;;;;;;;5076587;28;20052;-76
2022/11/20 08:00:45;;;;;;;12.93;8.45;;;;;;;;;;5067081;28;20041;-77
2022/11/20 08:03:12;;;;;;;14.52;8.20;;;;;;;;;;5069361;28;20068;-77
2022/11/20 08:05:38;;;;;;;11.75;8.68;;;;;;;;;;5070666;28;20773;-78
2022/11/20 08:08:07;;;;;;;11.95;7.97;;;;;;;;;;5056485;28;20056;-78
2022/11/20 08:10:33;;;;;;;12.85;8.20;;;;;;;;;;5056469;28;20057;-78
2022/11/20 08:15:48;;;;;;;13.38;8.88;;;;;;;;;;5075116;28;20044;-78
2022/11/20 08:18:14;;;;;;;12.13;8.55;;;;;;;;;;5076299;28;20098;-78
2022/11/20 08:20:40;;;;;;;11.90;8.02;;;;;;;;;;5076126;28;20040;-78
2022/11/20 08:23:07;;;;;;;12.48;8.45;;;;;;;;;;5074733;28;20044;-78
2022/11/20 08:25:34;;;;;;;12.80;8.13;;;;;;;;;;5075764;28;20128;-78
2022/11/20 08:28:01;;;;;;;12.88;8.13;;;;;;;;;;5075890;28;20048;-78
2022/11/20 08:30:28;;;;;;;13.30;8.70;;;;;;;;;;5075732;28;20072;-78
2022/11/20 08:32:54;;;;;;;14.18;9.07;;;;;;;;;;5074597;28;20041;-78
2022/11/20 08:35:23;;;;;;;14.48;9.55;;;;;;;;;;5075402;28;20052;-79
2022/11/20 08:37:49;;;;;;;14.57;9.85;;;;;;;;;;5058588;28;20518;-78
2022/11/20 08:40:16;;;;;;;14.07;8.98;;;;;;;;;;5068687;28;20044;-77
2022/11/20 08:42:49;;;;;;;16.17;9.63;;;;;;;;;;5063522;28;20057;-79
2022/11/20 08:45:15;;;;;;;15.38;9.90;;;;;;;;;;5066352;28;20521;-79
2022/11/20 08:47:41;;;;;;;15.07;10.27;;;;;;;;;;5062464;28;20051;-79
2022/11/20 08:50:08;;;;;;;13.65;9.02;;;;;;;;;;5080489;28;20094;-79
2022/11/20 08:52:34;;;;;;;15.38;9.38;;;;;;;;;;5083057;28;20037;-79
2022/11/20 08:55:00;;;;;;;14.13;9.50;;;;;;;;;;5077272;28;20500;-79
2022/11/20 08:57:26;;;;;;;15.07;10.65;;;;;;;;;;5062433;28;20049;-79
2022/11/20 08:59:52;;;;;;;12.35;8.35;;;;;;;;;;5076820;28;20052;-78
2022/11/20 09:02:18;;;;;;;15.93;10.73;;;;;;;;;;5070411;28;20048;-78
2022/11/20 09:04:47;;;;;;;16.88;10.70;;;;;;;;;;5080449;28;20040;-78
2022/11/20 09:07:13;;;;;;;15.93;10.10;;;;;;;;;;5081261;28;20104;-79
2022/11/20 09:09:42;;;;;;;17.08;11.43;;;;;;;;;;5082904;28;20141;-79
2022/11/20 09:12:11;;;;;;;15.52;9.68;;;;;;;;;;5082893;28;20085;-79
2022/11/20 09:14:43;;;;;;;20.05;13.02;;;;;;;;;;5068873;28;20057;-79
2022/11/20 09:17:13;;;;;;;15.50;9.30;;;;;;;;;;5081973;28;20079;-79
2022/11/20 09:19:40;;;;;;;24.75;14.90;;;;;;;;;;5077547;28;20041;-79
2022/11/20 09:22:06;;;;;;;20.65;15.15;;;;;;;;;;5082417;28;20044;-79
2022/11/20 09:24:32;;;;;;;17.25;11.45;;;;;;;;;;5082812;28;20044;-79
2022/11/20 09:26:58;;;;;;;14.60;10.13;;;;;;;;;;5082065;28;20052;-79
2022/11/20 09:29:25;;;;;;;16.95;11.95;;;;;;;;;;5063972;28;20048;-79
2022/11/20 09:31:51;;;;;;;18.77;11.65;;;;;;;;;;5081446;28;20044;-79
2022/11/20 09:34:17;;;;;;;15.07;11.88;;;;;;;;;;5083208;28;20096;-79
2022/11/20 09:36:43;;;;;;;16.17;11.85;;;;;;;;;;5071746;28;20055;-79
2022/11/20 09:39:09;;;;;;;13.30;9.63;;;;;;;;;;5069297;28;20213;-79
2022/11/20 09:41:43;;;;;;;14.95;10.88;;;;;;;;;;5069698;28;20045;-78
2022/11/20 09:44:24;;;;;;;15.30;10.13;;;;;;;;;;5080922;28;20040;-78
2022/11/20 09:46:55;;;;;;;15.27;10.13;;;;;;;;;;5070143;28;20044;-78
2022/11/20 09:49:21;;;;;;;13.90;10.18;;;;;;;;;;5083826;28;20135;-78
2022/11/20 09:51:57;;;;;;;16.98;10.40;;;;;;;;;;5073525;28;20394;-78
2022/11/20 09:54:27;;;;;;;14.85;10.23;;;;;;;;;;5075893;28;20052;-78
2022/11/20 09:57:14;;;;;;;13.43;9.43;;;;;;;;;;5084649;28;20056;-78
2022/11/20 09:59:43;;;;;;;15.85;10.50;;;;;;;;;;5086604;28;20041;-79
2022/11/20 10:02:16;;;;;;;15.75;10.95;;;;;;;;;;5088850;28;20086;-79
2022/11/20 10:04:45;;;;;;;16.20;10.98;;;;;;;;;;5089128;28;20067;-79
2022/11/20 10:07:17;;;;;;;15.57;10.68;;;;;;;;;;5069087;28;20045;-79
2022/11/20 10:09:57;;;;;;;16.55;11.50;;;;;;;;;;5066846;28;20041;-78
2022/11/20 10:12:33;;;;;;;17.48;13.18;;;;;;;;;;5085044;28;20047;-79
2022/11/20 10:15:05;;;;;;;18.75;11.82;;;;;;;;;;5085348;28;20063;-79
2022/11/20 10:17:47;;;;;;;16.88;10.60;;;;;;;;;;5087672;28;20044;-79
2022/11/20 10:20:26;;;;;;;17.65;11.68;;;;;;;;;;5088741;28;20051;-79
2022/11/20 10:22:55;;;;;;;16.92;11.45;;;;;;;;;;5087629;28;20040;-79
2022/11/20 10:25:40;;;;;;;17.02;11.15;;;;;;;;;;5086232;28;20063;-80
2022/11/20 10:28:39;;;;;;;14.13;9.88;;;;;;;;;;5082248;28;20093;-79
2022/11/20 10:31:08;;;;;;;17.40;12.88;;;;;;;;;;5052007;28;20064;-79
2022/11/20 10:33:37;;;;;;;18.42;11.38;;;;;;;;;;5075726;28;20052;-79
2022/11/20 10:36:24;;;;;;;18.95;13.35;;;;;;;;;;5084769;28;20036;-79
2022/11/20 10:38:55;;;;;;;19.67;12.57;;;;;;;;;;5084261;28;20441;-79
2022/11/20 10:41:24;;;;;;;14.23;10.13;;;;;;;;;;5072466;28;20037;-79
2022/11/20 10:43:53;;;;;;;13.55;9.88;;;;;;;;;;5081479;28;20045;-78
2022/11/20 10:46:22;;;;;;;14.57;10.32;;;;;;;;;;5078108;28;20064;-79
2022/11/20 10:48:48;;;;;;;13.90;9.57;;;;;;;;;;5078408;28;20443;-79
2022/11/20 10:51:33;;;;;;;13.77;8.95;;;;;;;;;;5079899;28;20071;-79
2022/11/20 10:54:14;;;;;;;13.07;9.02;;;;;;;;;;5077420;28;20047;-79
2022/11/20 10:56:42;;;;;;;12.98;9.55;;;;;;;;;;5078976;28;20055;-79
2022/11/20 10:59:26;;;;;;;12.25;9.32;;;;;;;;;;5076589;28;20482;-80
2022/11/20 11:01:52;;;;;;;17.00;10.32;;;;;;;;;;5086533;28;20093;-80
2022/11/20 11:04:36;;;;;;;14.07;8.93;;;;;;;;;;5080362;28;20123;-80
2022/11/20 11:07:10;;;;;;;11.77;8.52;;;;;;;;;;5069184;28;20124;-79
2022/11/20 11:09:40;;;;;;;15.50;9.52;;;;;;;;;;5076301;28;20039;-79
2022/11/20 11:12:07;;;;;;;16.83;10.88;;;;;;;;;;5077324;28;20048;-80
2022/11/20 11:14:42;;;;;;;14.20;9.77;;;;;;;;;;5080453;28;20064;-80
2022/11/20 11:17:18;;;;;;;12.80;8.70;;;;;;;;;;5070961;28;20048;-80
2022/11/20 11:19:45;;;;;;;13.20;9.32;;;;;;;;;;5082463;28;20364;-80
2022/11/20 11:22:18;;;;;;;14.75;9.60;;;;;;;;;;5083854;28;20070;-79
2022/11/20 11:24:52;;;;;;;13.10;9.30;;;;;;;;;;5083597;28;20047;-79
2022/11/20 11:27:18;;;;;;;15.10;10.18;;;;;;;;;;5065870;28;20091;-79
2022/11/20 11:29:45;;;;;;;14.43;9.80;;;;;;;;;;5071996;28;20032;-80
2022/11/20 11:32:14;;;;;;;11.48;8.55;;;;;;;;;;5080008;28;20450;-80
2022/11/20 11:34:40;;;;;;;11.60;7.97;;;;;;;;;;5063553;28;20123;-79
2022/11/20 11:37:11;;;;;;;10.15;6.65;;;;;;;;;;5067723;28;20037;-79
2022/11/20 11:39:41;;;;;;;7.88;5.63;;;;;;;;;;5073417;28;20045;-79
2022/11/20 11:42:13;;;;;;;9.30;6.07;;;;;;;;;;5062023;28;20417;-81
2022/11/20 11:47:44;;;;;;;8.77;5.90;;;;;;;;;;5080451;28;20045;-80
2022/11/20 11:50:10;;;;;;;8.23;6.30;;;;;;;;;;5061289;28;20057;-80
2022/11/20 11:52:42;;;;;;;16.08;6.20;;;;;;;;;;5068833;28;20096;-80
2022/11/20 11:55:10;;;;;;;7.82;5.72;;;;;;;;;;5068430;28;20036;-80
2022/11/20 11:57:47;;;;;;;8.73;6.05;;;;;;;;;;5072404;28;20126;-80
2022/11/20 12:00:15;;;;;;;7.85;5.47;;;;;;;;;;5074221;28;20063;-81
2022/11/20 12:02:49;;;;;;;9.18;6.38;;;;;;;;;;5082376;28;20049;-80
2022/11/20 12:05:19;;;;;;;9.00;6.30;;;;;;;;;;5077071;28;20047;-80
2022/11/20 12:07:48;;;;;;;8.95;5.63;;;;;;;;;;5073272;28;20045;-80
2022/11/20 12:10:20;;;;;;;9.57;5.57;;;;;;;;;;5080854;28;20101;-80
2022/11/20 12:12:50;;;;;;;8.23;6.07;;;;;;;;;;5072213;28;20399;-80
2022/11/20 12:15:36;;;;;;;7.65;5.80;;;;;;;;;;5062878;28;20060;-80
2022/11/20 12:18:03;;;;;;;7.43;5.60;;;;;;;;;;5063705;28;20041;-81
2022/11/20 12:20:42;;;;;;;8.43;5.70;;;;;;;;;;5071952;28;20556;-80
2022/11/20 12:23:14;;;;;;;7.93;5.30;;;;;;;;;;5069342;28;20115;-80
2022/11/20 12:25:42;;;;;;;7.03;5.20;;;;;;;;;;5064851;28;20045;-80
2022/11/20 12:28:08;;;;;;;6.90;5.30;;;;;;;;;;5061803;28;20037;-81
2022/11/20 12:30:38;;;;;;;8.93;6.40;;;;;;;;;;5065151;28;20040;-81
2022/11/20 12:33:23;;;;;;;8.02;5.60;;;;;;;;;;5070149;28;20047;-82
2022/11/20 12:35:56;;;;;;;8.82;6.15;;;;;;;;;;5079077;28;20064;-81
2022/11/20 12:38:41;;;;;;;6.75;5.25;;;;;;;;;;5072598;28;20049;-82
2022/11/20 12:45:08;;;;;;;19.05;10.57;;;;;;;;;;5073176;28;20088;-80
2022/11/20 12:47:17;;;;;;;9.02;5.47;;;;;;;;;;5076383;28;20081;-81
2022/11/20 12:50:02;;;;;;;8.43;5.25;;;;;;;;;;5081407;28;20041;-80
2022/11/20 12:52:39;;;;;;;8.70;6.28;;;;;;;;;;5074324;28;20106;-77
2022/11/20 12:55:24;;;;;;;8.13;4.97;;;;;;;;;;5072380;28;20402;-77
2022/11/20 12:58:01;;;;;;;10.00;6.63;;;;;;;;;;5074178;28;20439;-78
2022/11/20 13:00:27;;;;;;;7.18;5.30;;;;;;;;;;5060695;28;20053;-78
2022/11/20 13:03:02;;;;;;;8.93;6.25;;;;;;;;;;5061360;28;20129;-78
2022/11/20 13:05:28;;;;;;;12.95;8.20;;;;;;;;;;5054590;28;20063;-78
2022/11/20 13:07:55;;;;;;;9.20;6.30;;;;;;;;;;5071977;28;20387;-78
2022/11/20 13:10:21;;;;;;;7.38;4.72;;;;;;;;;;5078663;28;20079;-78
2022/11/20 13:12:51;;;;;;;10.00;6.30;;;;;;;;;;5073554;28;20048;-78
2022/11/20 13:15:40;;;;;;;7.45;5.35;;;;;;;;;;5071814;28;20378;-78
2022/11/20 13:18:10;;;;;;;8.88;5.40;;;;;;;;;;5052907;28;20112;-78
2022/11/20 13:20:41;;;;;;;7.75;5.60;;;;;;;;;;5052211;28;20108;-78
2022/11/20 13:23:07;;;;;;;11.90;8.05;;;;;;;;;;5055836;28;20137;-78
2022/11/20 13:25:34;;;;;;;8.90;6.10;;;;;;;;;;5067198;28;20048;-77
2022/11/20 13:28:21;;;;;;;7.78;5.32;;;;;;;;;;5063420;28;20048;-78
2022/11/20 13:30:51;;;;;;;8.85;5.93;;;;;;;;;;5045572;28;20052;-78
2022/11/20 13:33:29;;;;;;;8.65;5.50;;;;;;;;;;5070258;28;20040;-78
2022/11/20 13:36:18;;;;;;;7.22;5.22;;;;;;;;;;5072318;28;20041;-79
2022/11/20 13:38:46;;;;;;;7.00;4.93;;;;;;;;;;5058442;28;20064;-78
2022/11/20 13:41:30;;;;;;;9.40;5.82;;;;;;;;;;5063409;28;20040;-79
2022/11/20 13:44:05;;;;;;;7.63;5.30;;;;;;;;;;5075463;28;20102;-81
2022/11/20 13:46:39;;;;;;;7.30;5.93;;;;;;;;;;5081502;28;20114;-79
2022/11/20 13:49:09;;;;;;;8.52;6.07;;;;;;;;;;5072894;28;20450;-79
2022/11/20 13:51:35;;;;;;;7.85;5.40;;;;;;;;;;5076773;28;20068;-79
2022/11/20 13:54:17;;;;;;;7.07;5.25;;;;;;;;;;5080055;28;20044;-80
2022/11/20 13:56:46;;;;;;;7.85;5.00;;;;;;;;;;5082640;28;20051;-80
2022/11/20 13:59:15;;;;;;;7.82;6.03;;;;;;;;;;5080831;28;20033;-80
2022/11/20 14:01:43;;;;;;;7.28;5.28;;;;;;;;;;5064105;28;20098;-80
2022/11/20 14:04:09;;;;;;;7.43;4.93;;;;;;;;;;5070610;28;20093;-79
2022/11/20 14:06:41;;;;;;;7.57;5.20;;;;;;;;;;5081718;28;20104;-79
2022/11/20 14:09:10;;;;;;;8.60;5.38;;;;;;;;;;5082448;28;20045;-80
2022/11/20 14:11:36;;;;;;;7.00;5.25;;;;;;;;;;5082040;28;20040;-80
2022/11/20 14:14:04;;;;;;;7.35;5.10;;;;;;;;;;5068937;28;20048;-80
2022/11/20 14:16:31;;;;;;;9.23;5.80;;;;;;;;;;5082884;28;20045;-79
2022/11/20 14:18:58;;;;;;;13.27;5.88;;;;;;;;;;5083401;28;20041;-80
2022/11/20 14:21:29;;;;;;;6.90;5.35;;;;;;;;;;5080464;28;20511;-80
2022/11/20 14:24:11;;;;;;;6.95;5.40;;;;;;;;;;5083533;28;20082;-80
2022/11/20 14:26:38;;;;;;;7.25;5.07;;;;;;;;;;5083658;28;20067;-79
2022/11/20 14:29:04;;;;;;;10.25;6.05;;;;;;;;;;5064825;28;20049;-79
2022/11/20 14:31:31;;;;;;;7.65;5.63;;;;;;;;;;5073204;28;20175;-79
2022/11/20 14:33:57;;;;;;;6.80;5.32;;;;;;;;;;5079436;28;20145;-79
2022/11/20 14:36:25;;;;;;;8.88;6.00;;;;;;;;;;5084008;28;20036;-79
2022/11/20 14:38:51;;;;;;;8.35;5.72;;;;;;;;;;5082622;28;20096;-79
2022/11/20 14:41:22;;;;;;;10.32;6.65;;;;;;;;;;5063762;28;20041;-80
2022/11/20 14:43:50;;;;;;;8.95;6.68;;;;;;;;;;5076559;28;20049;-79
2022/11/20 14:46:16;;;;;;;7.18;5.90;;;;;;;;;;5080287;28;20510;-79
2022/11/20 14:48:45;;;;;;;8.05;6.35;;;;;;;;;;5056420;28;20051;-79
2022/11/20 14:51:11;;;;;;;7.22;6.07;;;;;;;;;;5087196;28;20053;-79